Time;durP1;ratioP1;P1;durP2;ratioP2;P2;SDS_P1;SDS_P2;PMS_P1;PMS_P2;Temp;Humidity;BMP_temperature;BMP_pressure;BME280_temperature;BME280_humidity;BME280_pressure;Samples;Min_cycle;Max_cycle;Signal;HPM_P1;HPM_P2
2023/09/29 01:14:42;;;;;;;20.60;8.15;;;;;;;14.59;69.14;100354.81;4907216;29;20056;-91
2023/09/29 01:17:09;;;;;;;16.53;7.73;;;;;;;14.67;69.22;100376.91;4874069;29;20100;-92
2023/09/29 01:19:48;;;;;;;15.85;7.90;;;;;;;15.11;68.88;100443.22;4874372;29;20040;-92
2023/09/29 03:31:46;;;;;;;19.50;9.95;;;;;;;13.27;73.70;100379.47;4892713;29;20076;-90
2023/09/29 03:35:27;;;;;;;25.63;10.90;;;;;;;13.79;73.50;100453.44;4887110;29;20086;-92
2023/09/29 04:31:59;;;;;;;41.08;13.98;;;;;;;13.68;75.37;100406.13;4888006;29;20056;-86
2023/09/29 04:34:35;;;;;;;40.38;13.57;;;;;;;13.79;75.32;100421.25;4846183;29;20038;-88
2023/09/29 04:37:57;;;;;;;34.28;13.60;;;;;;;14.08;75.24;100434.66;4833541;29;20115;-86
2023/09/29 04:40:30;;;;;;;28.43;13.20;;;;;;;13.97;74.94;100396.69;4857628;29;20126;-86
2023/09/29 04:43:07;;;;;;;30.08;14.90;;;;;;;14.28;75.00;100438.06;4851352;29;20505;-84
2023/09/29 04:45:42;;;;;;;33.40;14.30;;;;;;;13.66;74.71;100339.66;4861872;29;20057;-89
2023/09/29 04:48:15;;;;;;;29.10;13.93;;;;;;;14.17;74.75;100400.91;4809572;29;20055;-85
2023/09/29 04:50:49;;;;;;;31.90;13.57;;;;;;;14.49;74.71;100443.91;4835550;29;20070;-84
2023/09/29 04:53:16;;;;;;;34.72;14.15;;;;;;;14.59;74.39;100434.63;4827924;29;20109;-86
2023/09/29 04:55:42;;;;;;;34.10;13.43;;;;;;;14.54;74.09;100417.13;4801248;29;20091;-83
2023/09/29 04:58:14;;;;;;;30.77;13.50;;;;;;;14.69;73.92;100429.66;4843677;29;20077;-83
2023/09/29 05:01:06;;;;;;;38.70;13.52;;;;;;;14.82;74.03;100429.94;4816421;29;20102;-85
2023/09/29 05:03:51;;;;;;;37.22;12.65;;;;;;;14.91;73.77;100430.81;4830745;29;20057;-83
2023/09/29 05:06:18;;;;;;;31.08;12.82;;;;;;;14.93;73.59;100429.38;4858625;29;20042;-89
2023/09/29 05:08:59;;;;;;;34.40;12.95;;;;;;;14.60;73.29;100370.19;4840094;29;20053;-88
2023/09/29 05:14:24;;;;;;;45.20;16.88;;;;;;;14.96;73.23;100400.38;4941457;23;20123;-85
2023/09/29 05:16:50;;;;;;;35.60;14.73;;;;;;;15.23;73.17;100427.75;4883579;29;20052;-91
2023/09/29 05:19:16;;;;;;;28.10;13.55;;;;;;;15.25;72.70;100414.44;4896215;29;20127;-88
2023/09/29 05:21:45;;;;;;;27.65;13.05;;;;;;;14.99;72.29;100366.69;4876788;29;20045;-86
2023/09/29 05:24:23;;;;;;;23.60;11.93;;;;;;;15.46;71.75;100436.75;4878501;29;20036;-90
2023/09/29 05:26:56;;;;;;;25.90;12.88;;;;;;;15.24;71.34;100382.53;4875410;29;20060;-86
2023/09/29 05:29:59;;;;;;;22.55;12.02;;;;;;;15.56;70.85;100427.38;4902193;29;20028;-86
2023/09/29 05:37:39;;;;;;;29.73;12.57;;;;;;;15.85;70.40;100429.59;5077605;23;20040;-86
2023/09/29 05:40:52;;;;;;;37.28;11.48;;;;;;;15.91;70.19;100433.81;4905822;29;20044;-87
2023/09/29 05:43:21;;;;;;;29.50;12.88;;;;;;;15.55;69.46;100370.63;4888757;29;20045;-87
2023/09/29 05:47:35;;;;;;;26.08;12.65;;;;;;;16.03;69.14;100435.97;4908937;29;20205;-86
2023/09/29 05:51:41;;;;;;;22.52;11.93;;;;;;;16.14;69.42;100431.75;4842832;29;20089;-85
2023/09/29 05:54:57;;;;;;;29.38;13.02;;;;;;;16.26;69.10;100433.06;4837371;29;20552;-85
2023/09/29 05:58:06;;;;;;;28.20;12.00;;;;;;;16.35;68.63;100436.63;4831755;29;20046;-85
2023/09/29 06:01:11;;;;;;;28.35;12.07;;;;;;;15.91;68.30;100364.88;4817958;29;20065;-89
2023/09/29 06:04:03;;;;;;;22.98;13.05;;;;;;;16.50;68.12;100425.13;4802977;29;20049;-89
2023/09/29 06:11:17;;;;;;;22.75;12.63;;;;;;;16.81;67.58;100429.66;4824381;29;20066;-89
2023/09/29 06:14:35;;;;;;;31.02;12.15;;;;;;;16.91;66.62;100426.53;4737258;30;20049;-92
2023/09/29 06:17:04;;;;;;;30.85;12.88;;;;;;;16.94;66.53;100416.78;4746952;30;20048;-91
2023/09/29 06:20:18;;;;;;;25.38;12.38;;;;;;;16.56;66.50;100343.75;4735590;30;20037;-92
2023/09/29 06:23:23;;;;;;;45.17;13.65;;;;;;;16.88;66.15;100386.56;4722261;30;20060;-92
2023/09/29 06:26:04;;;;;;;36.65;12.52;;;;;;;17.28;65.85;100440.75;4768180;30;20089;-92
2023/09/29 06:28:33;;;;;;;30.08;12.65;;;;;;;16.98;65.68;100371.59;4803199;30;20075;-94
2023/09/29 06:33:56;;;;;;;33.78;12.95;;;;;;;16.97;65.82;100342.38;4254189;27;20040;-88
2023/09/29 06:36:23;;;;;;;33.03;13.07;;;;;;;17.57;64.71;100423.38;4905940;23;20131;-88
2023/09/29 06:38:55;;;;;;;30.05;13.32;;;;;;;17.34;64.74;100378.63;4914794;29;20450;-93
2023/09/29 06:41:21;;;;;;;38.03;12.50;;;;;;;17.57;64.89;100410.38;4875811;29;20043;-91
2023/09/29 06:44:00;;;;;;;33.13;13.30;;;;;;;17.58;64.61;100398.19;4880720;29;20068;-91
2023/09/29 06:46:51;;;;;;;42.75;14.30;;;;;;;17.88;64.53;100431.41;4893477;29;20407;-92
2023/09/29 06:49:37;;;;;;;42.70;18.25;;;;;;;17.99;64.48;100434.59;4874985;29;20049;-90
2023/09/29 06:52:19;;;;;;;58.13;18.88;;;;;;;18.08;65.00;100441.69;4896652;29;20080;-91
2023/09/29 06:54:58;;;;;;;37.85;16.67;;;;;;;17.97;64.85;100401.69;4895305;29;20041;-88
2023/09/29 06:57:24;;;;;;;49.72;16.42;;;;;;;18.05;65.16;100400.84;4881830;29;20057;-90
2023/09/29 07:00:15;;;;;;;45.27;18.13;;;;;;;17.97;64.22;100370.47;4916453;29;20036;-90
2023/09/29 07:02:43;;;;;;;38.83;15.45;;;;;;;17.96;63.93;100371.63;4900172;29;20043;-92
2023/09/29 07:08:58;;;;;;;37.00;17.55;;;;;;;18.00;63.55;100355.97;4825158;29;20090;-93
2023/09/29 07:18:21;;;;;;;42.88;16.85;;;;;;;18.64;63.84;100423.97;4892520;29;20056;-92
2023/09/29 07:21:45;;;;;;;46.70;17.35;;;;;;;18.73;63.41;100424.72;4847952;29;20049;-92
2023/09/29 07:31:04;;;;;;;34.58;16.75;;;;;;;18.84;63.04;100420.41;4915348;23;20061;-89
2023/09/29 07:33:42;;;;;;;41.85;17.20;;;;;;;18.93;63.63;100428.59;4887509;29;20500;-91
2023/09/29 07:36:33;;;;;;;40.38;16.98;;;;;;;18.51;62.92;100351.94;4885768;29;20112;-91
2023/09/29 07:39:01;;;;;;;34.65;16.95;;;;;;;18.95;63.08;100410.50;4873503;29;20454;-93
2023/09/29 07:41:27;;;;;;;40.85;17.17;;;;;;;18.76;63.52;100368.63;4882715;29;20049;-92
2023/09/29 07:44:19;;;;;;;28.33;14.70;;;;;;;18.99;63.26;100396.75;4890949;29;20047;-90
2023/09/29 07:46:54;;;;;;;39.72;14.70;;;;;;;19.29;64.13;100435.38;4865519;29;20052;-90
2023/09/29 07:49:23;;;;;;;29.23;13.40;;;;;;;19.09;63.40;100395.50;4879647;29;20029;-90
2023/09/29 07:52:27;;;;;;;24.10;12.45;;;;;;;19.00;63.58;100365.09;4913790;29;20056;-90
2023/09/29 07:54:58;;;;;;;27.73;12.30;;;;;;;19.18;64.25;100382.34;4896225;29;20029;-89
2023/09/29 08:01:13;;;;;;;19.95;11.82;;;;;;;19.48;63.98;100397.63;5015115;23;20056;-93
2023/09/29 08:03:44;;;;;;;30.55;12.43;;;;;;;19.16;63.57;100329.22;4901251;29;20040;-91
2023/09/29 08:07:08;;;;;;;32.58;12.73;;;;;;;19.59;62.47;100397.16;4872918;29;20108;-93
2023/09/29 08:09:34;;;;;;;27.90;12.07;;;;;;;19.66;62.42;100397.41;4875860;29;20028;-90
2023/09/29 08:12:22;;;;;;;104.80;15.45;;;;;;;19.65;62.40;100384.69;4912166;29;20048;-91
2023/09/29 08:15:15;;;;;;;33.13;13.23;;;;;;;20.02;62.27;100420.72;4887194;29;20053;-93
2023/09/29 08:17:43;;;;;;;39.63;12.68;;;;;;;19.47;62.50;100332.22;4908794;29;20040;-92
2023/09/29 08:20:35;;;;;;;26.67;11.65;;;;;;;19.62;62.15;100344.56;4899391;29;20127;-90
2023/09/29 08:23:30;;;;;;;25.40;11.20;;;;;;;20.18;61.41;100416.06;4862317;29;20060;-92
2023/09/29 08:26:12;;;;;;;29.65;12.75;;;;;;;19.90;61.90;100363.25;4863866;29;20048;-90
2023/09/29 08:29:37;;;;;;;22.83;11.52;;;;;;;20.35;61.57;100415.78;4876464;29;20071;-90
2023/09/29 08:32:29;;;;;;;21.40;10.52;;;;;;;20.49;61.19;100404.25;4879371;29;20088;-91
2023/09/29 08:35:18;;;;;;;39.20;10.68;;;;;;;20.31;61.37;100362.09;4898181;29;20399;-90
2023/09/29 08:37:45;;;;;;;22.85;10.30;;;;;;;20.04;61.60;100307.38;4837569;29;20110;-93
2023/09/29 08:40:21;;;;;;;53.33;11.20;;;;;;;20.49;60.68;100365.38;4789597;30;20051;-92
2023/09/29 08:43:11;;;;;;;29.02;10.50;;;;;;;20.49;60.92;100356.25;4784091;30;20055;-89
2023/09/29 08:45:46;;;;;;;22.00;10.23;;;;;;;20.81;60.22;100399.66;4776097;30;20055;-90
2023/09/29 08:48:13;;;;;;;26.27;10.10;;;;;;;20.73;60.48;100370.06;4783213;30;20047;-87
2023/09/29 08:50:55;;;;;;;32.70;10.70;;;;;;;20.39;59.97;100316.69;4762622;30;20059;-89
2023/09/29 08:54:12;;;;;;;21.20;10.27;;;;;;;20.52;60.06;100334.16;4781652;30;20050;-89
2023/09/29 08:56:39;;;;;;;37.58;11.07;;;;;;;20.86;59.69;100379.09;4780845;30;20071;-89
2023/09/29 08:59:06;;;;;;;28.08;10.27;;;;;;;20.70;59.46;100345.75;4768724;30;20059;-94
2023/09/29 09:02:27;;;;;;;31.92;10.75;;;;;;;21.07;59.08;100390.81;4801405;30;20088;-89
2023/09/29 09:04:58;;;;;;;20.15;9.45;;;;;;;21.16;59.21;100381.47;4785060;30;20066;-90
2023/09/29 09:07:24;;;;;;;40.15;9.57;;;;;;;21.14;59.18;100351.25;4766430;30;20055;-89
2023/09/29 09:10:12;;;;;;;31.73;11.43;;;;;;;21.02;58.89;100331.88;4768432;30;20052;-89
2023/09/29 09:12:48;;;;;;;25.65;10.63;;;;;;;21.14;58.47;100340.13;4797009;29;20059;-91
2023/09/29 09:15:46;;;;;;;25.52;9.60;;;;;;;21.40;57.21;100363.84;4838020;29;20056;-91
2023/09/29 09:18:19;;;;;;;26.70;9.23;;;;;;;21.25;57.56;100345.94;4804722;29;20054;-88
2023/09/29 09:21:02;;;;;;;23.50;10.43;;;;;;;21.58;56.97;100378.97;4833950;29;20625;-89
2023/09/29 09:23:38;;;;;;;20.17;9.20;;;;;;;21.41;55.42;100340.41;4816989;29;20046;-90
2023/09/29 09:26:16;;;;;;;23.55;9.13;;;;;;;21.29;56.94;100303.16;4816526;29;20046;-87
2023/09/29 09:28:45;;;;;;;18.08;9.20;;;;;;;21.75;57.31;100359.09;4823740;29;20126;-90
2023/09/29 09:31:12;;;;;;;23.02;9.13;;;;;;;21.79;56.49;100353.63;4820480;29;20081;-87
2023/09/29 09:33:53;;;;;;;22.95;8.75;;;;;;;21.65;55.54;100315.13;4824575;29;20038;-89
2023/09/29 09:36:24;;;;;;;29.92;10.30;;;;;;;21.44;55.39;100267.34;4817082;29;20057;-91
2023/09/29 09:38:50;;;;;;;24.80;9.20;;;;;;;22.12;56.17;100363.47;4818095;29;20078;-89
2023/09/29 09:41:17;;;;;;;27.15;10.48;;;;;;;21.93;55.25;100317.72;4818583;29;20050;-87
2023/09/29 09:44:12;;;;;;;29.83;11.55;;;;;;;21.93;55.43;100305.81;4833686;29;20053;-88
2023/09/29 09:47:37;;;;;;;28.83;12.27;;;;;;;22.34;54.36;100353.59;4836875;29;20110;-88
2023/09/29 09:51:07;;;;;;;20.35;8.13;;;;;;;22.36;54.92;100342.91;4831821;29;20050;-87
2023/09/29 09:53:38;;;;;;;25.60;8.38;;;;;;;22.40;54.13;100349.34;4816885;29;20146;-89
2023/09/29 09:56:21;;;;;;;27.50;8.48;;;;;;;22.43;54.12;100346.63;4847161;29;20057;-90
2023/09/29 09:58:54;;;;;;;35.58;10.82;;;;;;;22.19;52.92;100310.75;4874621;29;20107;-88
2023/09/29 10:01:21;;;;;;;26.35;10.43;;;;;;;22.44;53.18;100339.88;4876301;29;20041;-90
2023/09/29 10:03:50;;;;;;;39.13;9.45;;;;;;;22.46;52.79;100331.97;4910657;29;20112;-88
2023/09/29 10:06:18;;;;;;;26.90;8.55;;;;;;;22.61;53.15;100344.19;4877607;29;20072;-90
2023/09/29 10:09:11;;;;;;;32.35;8.57;;;;;;;22.68;52.17;100330.41;4881074;29;20044;-88
2023/09/29 10:12:28;;;;;;;28.02;8.88;;;;;;;22.72;51.29;100333.25;4931493;29;20081;-92
2023/09/29 10:14:59;;;;;;;26.65;10.95;;;;;;;22.43;50.76;100279.75;4896621;29;20366;-91
2023/09/29 10:21:07;;;;;;;31.80;10.70;;;;;;;22.86;51.03;100321.53;4853042;29;20113;-89
2023/09/29 10:23:54;;;;;;;34.45;9.50;;;;;;;23.03;51.19;100332.22;4778199;30;20458;-89
2023/09/29 10:26:20;;;;;;;23.15;11.55;;;;;;;22.93;50.90;100316.13;4747329;30;20407;-89
2023/09/29 10:29:21;;;;;;;18.48;9.65;;;;;;;22.85;49.96;100283.69;4822632;29;20058;-92
2023/09/29 10:32:31;;;;;;;14.27;7.97;;;;;;;22.77;49.65;100257.66;4843482;29;20038;-92
2023/09/29 10:35:05;;;;;;;22.55;8.23;;;;;;;22.64;49.93;100237.53;4808701;29;20050;-90
2023/09/29 10:37:41;;;;;;;15.35;8.02;;;;;;;23.03;49.25;100284.00;4825987;29;20086;-88
2023/09/29 10:40:40;;;;;;;24.67;7.20;;;;;;;22.90;48.30;100261.06;4824631;29;20065;-89
2023/09/29 10:46:10;;;;;;;24.05;7.82;;;;;;;22.70;47.53;100210.97;4948493;23;20057;-89
2023/09/29 10:49:03;;;;;;;24.95;7.03;;;;;;;23.27;47.99;100294.75;4880214;29;20100;-88
2023/09/29 10:52:20;;;;;;;18.35;8.15;;;;;;;23.00;47.84;100243.72;4894342;29;20050;-87
2023/09/29 10:55:14;;;;;;;20.92;7.45;;;;;;;23.39;46.03;100299.31;4895029;29;20041;-89
2023/09/29 10:57:42;;;;;;;52.15;8.85;;;;;;;23.17;48.38;100243.19;4859518;29;20100;-88
2023/09/29 11:01:03;;;;;;;14.77;6.85;;;;;;;23.45;46.17;100269.91;4902695;29;20089;-95
2023/09/29 11:03:32;;;;;;;17.50;8.15;;;;;;;23.21;45.78;100241.28;4880227;29;20423;-89
2023/09/29 11:06:03;;;;;;;14.27;7.32;;;;;;;23.23;44.93;100240.09;4861246;29;20040;-90
2023/09/29 11:08:45;;;;;;;39.72;10.18;;;;;;;23.58;45.84;100290.03;4891110;29;20066;-87
2023/09/29 11:11:17;;;;;;;22.95;8.57;;;;;;;23.12;45.21;100206.47;4905718;29;20109;-89
2023/09/29 11:13:43;;;;;;;19.40;7.28;;;;;;;23.42;45.29;100242.75;4863814;29;20060;-87
2023/09/29 11:16:32;;;;;;;18.05;8.05;;;;;;;23.76;45.23;100279.94;4891981;29;20044;-91
2023/09/29 11:19:15;;;;;;;22.15;7.63;;;;;;;23.57;44.24;100246.53;4890650;29;20053;-87
2023/09/29 11:21:43;;;;;;;15.43;6.90;;;;;;;23.75;44.49;100271.94;4898724;29;20052;-92
2023/09/29 11:24:19;;;;;;;27.27;11.25;;;;;;;23.82;43.94;100277.63;4877118;29;20047;-88
2023/09/29 11:27:47;;;;;;;14.40;8.45;;;;;;;23.82;44.17;100272.84;4878049;29;20051;-90
2023/09/29 11:30:15;;;;;;;27.98;8.00;;;;;;;23.43;43.82;100196.91;4896645;29;20076;-87
2023/09/29 11:32:43;;;;;;;32.33;7.32;;;;;;;23.90;43.48;100273.72;4878341;29;20169;-89
2023/09/29 11:36:10;;;;;;;23.77;6.75;;;;;;;23.82;42.21;100272.03;4867526;29;20060;-89
2023/09/29 11:39:45;;;;;;;27.13;7.85;;;;;;;23.81;42.77;100270.44;4887172;29;20032;-89
2023/09/29 11:42:35;;;;;;;18.02;6.43;;;;;;;23.45;42.21;100202.94;4893672;29;20061;-91
2023/09/29 11:45:08;;;;;;;20.40;7.95;;;;;;;23.70;42.21;100233.19;4844522;29;20125;-91
2023/09/29 11:47:48;;;;;;;19.10;8.23;;;;;;;23.79;41.89;100245.66;4841605;29;20145;-91
2023/09/29 11:50:15;;;;;;;24.67;8.13;;;;;;;23.61;42.28;100206.34;4852561;29;20167;-91
2023/09/29 11:52:41;;;;;;;30.02;10.90;;;;;;;23.70;42.18;100208.06;4837327;29;20041;-92
2023/09/29 11:55:16;;;;;;;25.55;10.23;;;;;;;23.68;41.51;100192.50;4825625;29;20081;-91
2023/09/29 11:57:42;;;;;;;19.58;7.13;;;;;;;23.38;41.77;100147.84;4808944;29;20163;-91
2023/09/29 12:00:25;;;;;;;16.80;7.10;;;;;;;23.79;41.03;100211.38;4843774;29;20034;-90
2023/09/29 12:02:55;;;;;;;24.85;7.32;;;;;;;23.58;41.57;100168.03;4846427;29;20142;-90
2023/09/29 12:05:30;;;;;;;;;;;;;;;24.15;43.97;100234.91;4807883;29;20042;-86
2023/09/29 12:07:57;;;;;;;20.05;9.00;;;;;;;24.15;40.98;100226.53;4841939;29;19930;-88
2023/09/29 12:10:23;;;;;;;27.42;8.10;;;;;;;24.02;43.75;100200.06;4854467;29;20042;-86
2023/09/29 12:12:49;;;;;;;18.85;7.30;;;;;;;24.15;40.75;100218.16;4854078;29;20128;-90
2023/09/29 12:15:33;;;;;;;30.27;8.30;;;;;;;24.03;41.23;100213.63;4855299;29;20060;-91
2023/09/29 12:18:01;;;;;;;40.70;8.35;;;;;;;23.70;41.56;100150.22;4854059;29;20049;-90
2023/09/29 12:20:39;;;;;;;;;;;;;;;24.24;41.61;100234.59;4839551;29;20053;-90
2023/09/29 12:23:08;;;;;;;30.10;7.68;;;;;;;24.25;41.19;100219.44;4871052;29;19923;-91
2023/09/29 12:25:54;;;;;;;17.65;6.68;;;;;;;24.13;40.40;100198.16;4856332;29;20107;-90
2023/09/29 12:28:24;;;;;;;18.60;7.85;;;;;;;24.14;40.41;100200.59;4853403;29;20049;-90
2023/09/29 12:31:10;;;;;;;16.98;7.45;;;;;;;24.30;40.31;100228.28;4869878;29;20056;-90
2023/09/29 12:33:37;;;;;;;34.23;8.67;;;;;;;24.33;40.79;100224.72;4851120;29;20056;-90
2023/09/29 12:36:56;;;;;;;23.05;10.90;;;;;;;24.35;40.69;100225.13;4870215;29;20045;-89
2023/09/29 12:39:25;;;;;;;26.98;7.38;;;;;;;24.11;39.47;100190.19;4852302;29;20091;-90
2023/09/29 12:41:51;;;;;;;17.50;7.47;;;;;;;23.99;39.94;100165.31;4853138;29;20100;-90
2023/09/29 12:45:11;;;;;;;26.23;8.27;;;;;;;24.10;40.59;100173.78;4875276;29;20069;-90
2023/09/29 12:47:37;;;;;;;27.00;7.43;;;;;;;24.29;39.92;100192.34;4862483;29;20040;-90
2023/09/29 12:50:07;;;;;;;23.33;7.75;;;;;;;24.38;40.69;100223.56;4889794;29;20574;-90
2023/09/29 12:52:35;;;;;;;20.15;8.77;;;;;;;23.86;40.21;100130.47;4885979;29;20044;-91
2023/09/29 12:55:02;;;;;;;38.28;18.27;;;;;;;24.18;40.80;100188.66;4889442;29;20048;-89
2023/09/29 12:57:31;;;;;;;19.35;8.85;;;;;;;23.95;39.65;100163.69;4880096;29;20040;-90
2023/09/29 13:00:00;;;;;;;15.98;6.60;;;;;;;23.71;39.11;100125.91;4909768;29;20036;-90
2023/09/29 13:02:31;;;;;;;26.55;6.78;;;;;;;23.98;40.07;100179.66;4847610;29;20151;-90
2023/09/29 13:04:58;;;;;;;32.35;8.73;;;;;;;24.10;40.36;100210.91;4861574;29;20104;-90
2023/09/29 13:10:12;;;;;;;15.50;6.57;;;;;;;23.66;39.44;100139.00;4886215;29;20429;-93
2023/09/29 13:12:38;;;;;;;18.10;6.65;;;;;;;23.91;40.31;100166.44;4869750;29;20056;-89
2023/09/29 13:15:11;;;;;;;18.88;7.00;;;;;;;24.13;39.05;100193.38;4856587;29;20048;-92
2023/09/29 13:18:43;;;;;;;25.50;7.70;;;;;;;24.14;39.67;100192.22;4840901;29;20072;-92
2023/09/29 13:21:10;;;;;;;21.13;6.95;;;;;;;23.71;39.41;100126.72;4858982;29;20070;-90
2023/09/29 13:23:36;;;;;;;12.38;6.75;;;;;;;23.60;40.04;100128.53;4851902;29;20041;-88
2023/09/29 13:26:03;;;;;;;24.95;7.43;;;;;;;23.82;39.23;100163.94;4872565;29;20067;-90
2023/09/29 13:29:34;;;;;;;20.92;7.00;;;;;;;23.88;40.29;100179.16;4868396;29;20136;-89
2023/09/29 13:32:37;;;;;;;39.00;10.00;;;;;;;23.80;42.45;100162.69;4874309;29;20477;-91
2023/09/29 13:35:28;;;;;;;24.85;10.60;;;;;;;24.61;42.28;100173.09;4873726;29;20070;-88
2023/09/29 13:37:55;;;;;;;13.20;8.52;;;;;;;24.82;40.44;100178.84;4853025;29;20454;-86
2023/09/29 13:40:21;;;;;;;16.10;8.43;;;;;;;24.83;39.70;100168.44;4852637;29;20041;-86
2023/09/29 13:42:53;;;;;;;23.35;10.07;;;;;;;24.91;39.24;100186.91;4886620;29;20056;-89
2023/09/29 13:45:19;;;;;;;33.72;8.85;;;;;;;24.87;40.22;100177.69;4857344;29;20507;-88
2023/09/29 13:47:46;;;;;;;31.98;8.98;;;;;;;25.03;39.60;100181.00;4883215;29;20068;-88
2023/09/29 13:53:02;;;;;;;49.53;15.27;;;;;;;24.99;40.29;100173.75;4819370;29;20054;-88
2023/09/29 13:55:29;;;;;;;43.70;12.55;;;;;;;24.81;39.13;100149.28;4813179;29;20129;-86
2023/09/29 13:57:58;;;;;;;28.60;10.30;;;;;;;24.94;39.47;100179.72;4818783;29;20061;-88
2023/09/29 14:00:24;;;;;;;37.50;10.10;;;;;;;24.69;40.59;100137.59;4798802;29;20050;-88
2023/09/29 14:02:52;;;;;;;49.10;10.30;;;;;;;24.81;39.89;100177.25;4801827;29;20047;-87
2023/09/29 14:05:18;;;;;;;34.38;9.00;;;;;;;24.39;40.34;100146.91;4794223;29;20585;-87
2023/09/29 14:07:44;;;;;;;35.72;11.43;;;;;;;24.43;41.29;100172.94;4815458;29;20064;-85
2023/09/29 14:10:10;;;;;;;32.53;13.43;;;;;;;24.29;41.72;100173.56;4819049;29;20137;-85
2023/09/29 14:12:37;;;;;;;45.80;13.25;;;;;;;24.15;40.69;100165.88;4824933;29;20118;-85
2023/09/29 14:15:04;;;;;;;46.35;12.57;;;;;;;24.18;41.54;100167.09;4799887;29;20114;-88
2023/09/29 14:17:31;;;;;;;43.13;15.40;;;;;;;24.05;41.91;100144.22;4782074;29;20112;-90
2023/09/29 14:20:08;;;;;;;37.33;16.02;;;;;;;24.03;43.14;100124.25;4795270;29;20054;-89
2023/09/29 14:22:48;;;;;;;34.15;15.18;;;;;;;24.08;42.30;100128.69;4811210;29;20046;-87
2023/09/29 14:25:27;;;;;;;26.52;12.45;;;;;;;24.03;44.07;100138.22;4813450;29;20055;-89
2023/09/29 14:27:54;;;;;;;36.75;15.48;;;;;;;24.02;44.04;100135.81;4819413;29;20077;-88
2023/09/29 14:30:21;;;;;;;32.80;15.50;;;;;;;24.24;41.79;100164.72;4877186;29;20057;-90
2023/09/29 14:32:50;;;;;;;41.33;15.30;;;;;;;24.04;44.10;100128.66;4873909;29;20100;-88
2023/09/29 14:35:16;;;;;;;61.25;27.00;;;;;;;23.90;42.70;100146.06;4870158;29;20108;-88
2023/09/29 14:37:42;;;;;;;62.00;26.60;;;;;;;24.06;43.62;100157.00;4872732;29;20021;-88
2023/09/29 14:40:11;;;;;;;50.58;21.95;;;;;;;23.87;43.16;100149.63;4871461;29;20140;-88
2023/09/29 14:42:38;;;;;;;55.28;23.33;;;;;;;23.49;42.98;100124.84;4875261;29;20044;-89
2023/09/29 14:45:41;;;;;;;64.43;25.95;;;;;;;23.34;43.91;100118.28;4891458;29;20116;-88
2023/09/29 14:48:08;;;;;;;55.90;28.20;;;;;;;23.61;43.23;100153.31;4871194;29;20051;-90
2023/09/29 14:50:39;;;;;;;49.30;24.08;;;;;;;23.05;43.78;100078.06;4857460;29;20053;-92
2023/09/29 14:53:08;;;;;;;39.70;18.38;;;;;;;23.39;44.21;100137.47;4841772;29;20082;-91
2023/09/29 14:55:41;;;;;;;33.08;15.52;;;;;;;23.18;45.05;100094.19;4871845;29;20057;-93
2023/09/29 14:58:07;;;;;;;47.20;19.88;;;;;;;23.54;44.18;100161.59;4875542;29;20037;-90
2023/09/29 15:00:35;;;;;;;54.53;20.88;;;;;;;23.44;43.51;100121.22;4873860;29;20116;-91
2023/09/29 15:03:06;;;;;;;62.22;19.98;;;;;;;23.74;44.57;100144.69;4875604;29;20056;-89
2023/09/29 15:05:39;;;;;;;71.03;24.75;;;;;;;23.51;44.66;100116.88;4853775;29;20075;-90
2023/09/29 15:08:07;;;;;;;102.70;37.80;;;;;;;23.42;44.68;100106.03;4845772;29;20117;-91
2023/09/29 15:10:33;;;;;;;;;;;;;;;23.65;44.63;100145.75;4886305;29;20044;-89
2023/09/29 15:13:01;;;;;;;101.88;44.40;;;;;;;23.37;44.88;100117.50;4861959;29;19996;-90
2023/09/29 15:15:27;;;;;;;;;;;;;;;23.50;45.27;100146.78;4887372;29;20061;-90
2023/09/29 15:18:57;;;;;;;108.75;45.88;;;;;;;23.44;46.08;100146.31;4857898;29;19930;-88
2023/09/29 15:21:28;;;;;;;91.45;44.65;;;;;;;23.48;45.86;100138.00;4865647;29;20085;-89
2023/09/29 15:23:58;;;;;;;98.25;45.08;;;;;;;23.16;45.64;100096.53;4860906;29;20426;-89
2023/09/29 15:26:27;;;;;;;100.20;42.92;;;;;;;23.47;46.03;100143.94;4889163;29;20139;-90
2023/09/29 15:28:54;;;;;;;113.07;48.47;;;;;;;23.20;45.86;100113.31;4845134;29;20044;-88
2023/09/29 15:31:24;;;;;;;133.23;58.38;;;;;;;23.02;46.16;100093.56;4874225;29;20057;-89
2023/09/29 15:33:54;;;;;;;155.25;62.50;;;;;;;22.68;45.71;100071.19;4861076;29;20056;-90
2023/09/29 15:45:05;;;;;;;84.27;34.60;;;;;;;22.28;46.50;100085.69;4899860;29;20090;-91
2023/09/29 15:52:42;;;;;;;61.67;25.42;;;;;;;22.05;47.70;100155.28;4876430;29;20101;-91
2023/09/29 15:55:10;;;;;;;67.15;22.83;;;;;;;21.33;47.92;100052.94;4868362;29;20053;-92
2023/09/29 16:06:03;;;;;;;71.63;31.02;;;;;;;22.05;47.31;100138.56;4908794;29;20085;-91
2023/09/29 16:08:32;;;;;;;72.82;30.02;;;;;;;21.71;47.95;100096.59;4856741;29;20040;-88
2023/09/29 16:11:01;;;;;;;81.97;31.83;;;;;;;21.94;47.87;100140.34;4873040;29;20104;-91
2023/09/29 16:13:28;;;;;;;66.88;30.27;;;;;;;21.79;48.29;100123.41;4887007;29;20076;-87
2023/09/29 16:16:06;;;;;;;72.97;32.00;;;;;;;21.68;48.09;100108.47;4870566;29;20048;-90
2023/09/29 16:18:51;;;;;;;70.80;29.75;;;;;;;21.88;47.90;100139.84;4884706;29;20072;-92
2023/09/29 16:21:34;;;;;;;64.07;26.67;;;;;;;21.70;47.94;100108.09;4854348;29;20072;-87
2023/09/29 16:24:04;;;;;;;65.45;26.17;;;;;;;21.34;47.46;100051.75;4856345;29;20154;-90
2023/09/29 16:26:30;;;;;;;67.22;28.80;;;;;;;21.37;48.84;100091.97;4892324;29;20041;-89
2023/09/29 16:28:56;;;;;;;61.03;26.10;;;;;;;21.50;49.51;100113.69;4875303;29;20037;-85
2023/09/29 16:31:28;;;;;;;51.08;23.73;;;;;;;21.46;49.07;100112.81;4907378;29;20044;-85
2023/09/29 16:33:56;;;;;;;49.60;20.95;;;;;;;21.35;50.04;100115.38;4872352;29;20123;-86
2023/09/29 16:36:25;;;;;;;44.72;20.40;;;;;;;21.41;49.96;100120.66;4892671;29;20104;-88
2023/09/29 16:38:54;;;;;;;53.72;18.83;;;;;;;21.42;49.44;100122.25;4872345;29;20064;-86
2023/09/29 16:41:29;;;;;;;59.13;18.98;;;;;;;21.08;49.83;100089.34;4858896;29;20092;-85
2023/09/29 16:44:08;;;;;;;52.83;22.00;;;;;;;21.25;49.57;100110.38;4895524;29;20086;-85
2023/09/29 16:46:34;;;;;;;54.28;25.92;;;;;;;21.15;49.83;100121.28;4893969;29;20049;-85
2023/09/29 16:49:37;;;;;;;57.72;25.30;;;;;;;20.85;50.92;100103.16;4907316;29;20044;-85
2023/09/29 16:52:16;;;;;;;62.90;23.45;;;;;;;20.11;51.28;100025.25;4838591;29;20058;-92
2023/09/29 16:54:45;;;;;;;59.97;25.48;;;;;;;20.45;51.76;100094.25;4843701;29;20078;-87
2023/09/29 16:57:14;;;;;;;56.33;25.20;;;;;;;20.39;52.63;100104.81;4851534;29;20106;-86
2023/09/29 16:59:43;;;;;;;61.50;23.42;;;;;;;20.23;53.11;100117.91;4848203;29;20299;-88
2023/09/29 17:02:16;;;;;;;46.92;18.92;;;;;;;19.85;53.17;100078.50;4850527;29;20084;-92
2023/09/29 17:04:49;;;;;;;49.37;19.70;;;;;;;19.84;53.62;100103.84;4819049;29;20058;-93
2023/09/29 17:07:16;;;;;;;52.50;20.30;;;;;;;19.57;53.89;100073.00;4841347;29;20027;-90
2023/09/29 17:09:55;;;;;;;43.88;18.42;;;;;;;19.63;54.09;100087.38;4854625;29;20057;-88
2023/09/29 17:12:26;;;;;;;46.45;18.35;;;;;;;19.07;54.26;100021.69;4827412;29;20210;-91
2023/09/29 17:14:59;;;;;;;58.63;19.60;;;;;;;19.45;54.53;100090.50;4826521;29;20050;-85
2023/09/29 17:17:34;;;;;;;55.72;18.27;;;;;;;19.45;54.87;100096.03;4850644;29;20056;-89
2023/09/29 17:20:16;;;;;;;45.03;19.08;;;;;;;19.46;55.17;100105.16;4851531;29;20050;-85
2023/09/29 17:22:46;;;;;;;49.47;19.67;;;;;;;18.83;55.56;100019.81;4840301;29;20137;-90
2023/09/29 17:25:12;;;;;;;59.10;21.42;;;;;;;19.15;56.19;100086.47;4839571;29;20094;-89
2023/09/29 17:27:40;;;;;;;60.67;21.17;;;;;;;18.99;56.55;100067.00;4837898;29;20087;-87
2023/09/29 17:36:26;;;;;;;62.72;24.25;;;;;;;18.78;57.92;100101.22;4842040;29;20057;-90
2023/09/29 17:39:10;;;;;;;63.22;22.88;;;;;;;18.67;58.42;100108.34;4864864;29;20045;-86
2023/09/29 17:41:42;;;;;;;71.03;23.45;;;;;;;18.55;59.28;100111.94;4818541;29;20041;-84